Time;durP1;ratioP1;P1;durP2;ratioP2;P2;SDS_P1;SDS_P2;PMS_P1;PMS_P2;Temp;Humidity;BMP_temperature;BMP_pressure;BME280_temperature;BME280_humidity;BME280_pressure;Samples;Min_cycle;Max_cycle;Signal;HPM_P1;HPM_P2
2023/04/04 00:01:21;;;;;;;8.05;5.15;;;1.30;99.90;;;;;;4933344;29;20051;-72
2023/04/04 00:03:50;;;;;;;7.03;5.10;;;1.30;99.90;;;;;;4940657;29;20048;-72
2023/04/04 00:06:19;;;;;;;4.72;1.92;;;1.30;99.90;;;;;;4940503;29;20044;-72
2023/04/04 00:08:44;;;;;;;2.35;1.60;;;1.30;99.90;;;;;;4948526;29;20049;-72
2023/04/04 00:11:10;;;;;;;4.93;2.22;;;1.30;99.90;;;;;;4948850;28;20130;-72
2023/04/04 00:13:37;;;;;;;5.60;2.55;;;1.30;99.90;;;;;;4939847;29;20588;-72
2023/04/04 00:16:04;;;;;;;4.47;2.70;;;1.30;99.90;;;;;;4945866;29;20502;-72
2023/04/04 00:18:30;;;;;;;3.60;2.00;;;1.30;99.90;;;;;;4967899;28;20095;-72
2023/04/04 00:20:55;;;;;;;7.13;5.30;;;1.20;99.90;;;;;;4951378;28;20039;-72
2023/04/04 00:23:21;;;;;;;4.63;2.53;;;1.20;99.90;;;;;;4938990;29;20051;-72
2023/04/04 00:25:53;;;;;;;5.63;2.75;;;1.20;99.90;;;;;;4942735;29;20047;-72
2023/04/04 00:28:19;;;;;;;3.50;2.15;;;1.20;99.90;;;;;;4968620;28;20043;-72
2023/04/04 00:30:45;;;;;;;7.25;5.35;;;1.10;99.90;;;;;;4953298;28;20040;-72
2023/04/04 00:33:11;;;;;;;6.90;3.22;;;1.10;99.90;;;;;;4937390;29;20564;-72
2023/04/04 00:35:37;;;;;;;9.27;5.40;;;1.10;99.90;;;;;;4943674;29;20054;-72
2023/04/04 00:38:02;;;;;;;8.20;5.68;;;1.00;99.90;;;;;;4949391;29;20039;-72
2023/04/04 00:40:28;;;;;;;7.47;5.47;;;1.00;99.90;;;;;;4950110;28;20059;-72
2023/04/04 00:42:54;;;;;;;7.93;5.38;;;1.00;99.90;;;;;;4932963;29;20031;-72
2023/04/04 00:45:20;;;;;;;4.05;2.40;;;1.00;99.90;;;;;;4963044;28;20039;-72
2023/04/04 00:47:46;;;;;;;9.77;6.22;;;0.90;99.90;;;;;;4946028;29;20039;-72
2023/04/04 00:50:11;;;;;;;8.68;6.07;;;0.80;99.90;;;;;;4936981;29;20416;-72
2023/04/04 00:52:37;;;;;;;2.90;1.88;;;0.70;99.90;;;;;;4937760;29;20046;-72
2023/04/04 00:55:03;;;;;;;4.18;2.75;;;0.70;99.90;;;;;;4946616;29;20122;-72
2023/04/04 00:57:31;;;;;;;4.68;2.40;;;0.60;99.90;;;;;;4954597;29;20131;-72
2023/04/04 00:59:57;;;;;;;4.10;2.17;;;0.60;99.90;;;;;;4943928;29;20467;-72
2023/04/04 01:02:23;;;;;;;5.30;2.80;;;0.60;99.90;;;;;;4934365;29;20040;-72
2023/04/04 01:04:50;;;;;;;4.80;2.75;;;0.50;99.90;;;;;;4949606;29;20036;-72
2023/04/04 01:07:17;;;;;;;4.18;1.92;;;0.50;99.90;;;;;;4943167;29;20040;-72
2023/04/04 01:09:43;;;;;;;7.75;5.65;;;0.40;99.90;;;;;;4934130;29;20529;-72
2023/04/04 01:12:09;;;;;;;7.60;6.80;;;0.40;99.90;;;;;;4938157;29;20043;-72
2023/04/04 01:14:35;;;;;;;7.40;2.53;;;0.40;99.90;;;;;;4935735;29;20103;-72
2023/04/04 01:17:02;;;;;;;7.95;6.72;;;0.30;99.90;;;;;;4962304;28;20054;-72
2023/04/04 01:19:35;;;;;;;7.20;3.10;;;0.30;99.90;;;;;;4947029;29;20574;-72
2023/04/04 01:22:02;;;;;;;4.03;2.45;;;0.30;99.90;;;;;;4938121;29;20036;-72
2023/04/04 01:24:32;;;;;;;3.10;2.42;;;0.30;99.90;;;;;;4918975;29;20103;-72
2023/04/04 01:26:59;;;;;;;8.13;6.53;;;0.30;99.90;;;;;;4938482;29;20070;-72
2023/04/04 01:29:26;;;;;;;5.53;2.80;;;0.30;99.90;;;;;;4944102;29;20043;-72
2023/04/04 01:32:18;;;;;;;7.15;2.97;;;0.30;99.90;;;;;;4929486;29;20066;-72
2023/04/04 01:35:26;;;;;;;4.75;2.90;;;0.30;99.90;;;;;;4924127;29;20063;-72
2023/04/04 01:38:15;;;;;;;5.40;3.10;;;0.30;99.90;;;;;;4915362;29;20048;-72
2023/04/04 01:40:47;;;;;;;7.13;3.30;;;0.40;99.90;;;;;;4938073;28;20613;-72
2023/04/04 01:43:12;;;;;;;4.63;2.90;;;0.30;99.90;;;;;;4926414;29;20043;-72
2023/04/04 01:45:39;;;;;;;9.57;6.82;;;0.30;99.90;;;;;;4934256;29;20295;-72
2023/04/04 01:48:05;;;;;;;6.55;3.30;;;0.30;99.90;;;;;;4937735;29;20494;-72
2023/04/04 01:50:30;;;;;;;8.77;7.03;;;0.20;99.90;;;;;;4928615;29;20044;-72
2023/04/04 01:52:56;;;;;;;6.68;3.80;;;0.20;99.90;;;;;;4945431;29;20080;-72
2023/04/04 01:55:21;;;;;;;6.45;3.38;;;0.20;99.90;;;;;;4953751;29;20057;-72
2023/04/04 01:57:47;;;;;;;4.65;2.95;;;0.20;99.90;;;;;;4946103;29;20070;-72
2023/04/04 02:00:14;;;;;;;8.50;7.22;;;0.20;99.90;;;;;;4924484;29;20043;-72
2023/04/04 02:02:40;;;;;;;7.70;3.25;;;0.30;99.90;;;;;;4943013;29;20555;-72
2023/04/04 02:05:06;;;;;;;5.03;3.45;;;0.30;99.90;;;;;;4961249;28;20075;-73
2023/04/04 02:07:31;;;;;;;6.50;3.60;;;0.20;99.90;;;;;;4963154;28;20099;-72
2023/04/04 02:09:57;;;;;;;10.70;7.20;;;0.20;99.90;;;;;;4924967;29;20221;-72
2023/04/04 02:12:23;;;;;;;5.95;3.20;;;0.10;99.90;;;;;;4940947;29;20063;-72
2023/04/04 02:14:48;;;;;;;4.03;3.17;;;0.10;99.90;;;;;;4948997;29;20043;-72
2023/04/04 02:17:14;;;;;;;8.88;3.63;;;0.10;99.90;;;;;;4929117;29;20059;-72
2023/04/04 02:19:39;;;;;;;6.75;3.88;;;0.00;99.90;;;;;;4929701;29;20048;-72
2023/04/04 02:22:05;;;;;;;5.28;3.08;;;0.00;99.90;;;;;;4925172;29;20067;-72
2023/04/04 02:24:31;;;;;;;4.55;3.55;;;-0.10;99.90;;;;;;4952513;28;20043;-72
2023/04/04 02:26:56;;;;;;;8.90;3.65;;;-0.10;99.90;;;;;;4930141;29;20051;-72
2023/04/04 02:29:22;;;;;;;7.90;7.10;;;-0.20;99.90;;;;;;4931712;29;20047;-72
2023/04/04 02:31:47;;;;;;;12.25;8.23;;;-0.30;99.90;;;;;;4931696;29;20047;-72
2023/04/04 02:34:13;;;;;;;6.85;3.67;;;-0.40;99.90;;;;;;4948005;29;20053;-72
2023/04/04 02:36:38;;;;;;;5.95;3.28;;;-0.50;99.90;;;;;;4943428;29;20048;-72
2023/04/04 02:39:04;;;;;;;8.25;3.35;;;-0.50;99.90;;;;;;4910194;29;20048;-72
2023/04/04 02:41:31;;;;;;;7.35;3.38;;;-0.60;99.90;;;;;;4941439;29;20055;-72
2023/04/04 02:43:56;;;;;;;6.38;3.47;;;-0.60;99.90;;;;;;4959091;28;20054;-72
2023/04/04 02:46:22;;;;;;;6.18;3.60;;;-0.60;99.90;;;;;;4952224;28;20040;-72
2023/04/04 02:48:48;;;;;;;5.28;3.25;;;-0.60;99.90;;;;;;4929898;29;20103;-72
2023/04/04 02:51:13;;;;;;;7.82;3.38;;;-0.70;99.90;;;;;;4919850;29;20047;-72
2023/04/04 02:53:39;;;;;;;7.18;5.18;;;-0.70;99.90;;;;;;4943086;29;20052;-72
2023/04/04 02:56:05;;;;;;;5.97;3.33;;;-0.80;99.90;;;;;;4966596;28;20134;-72
2023/04/04 02:58:31;;;;;;;6.43;3.85;;;-0.80;99.90;;;;;;4921449;29;20055;-72
2023/04/04 03:00:57;;;;;;;10.20;4.10;;;-0.90;99.90;;;;;;4916434;29;20482;-72
2023/04/04 03:03:22;;;;;;;6.85;3.88;;;-0.90;99.90;;;;;;4940855;29;20043;-72
2023/04/04 03:05:49;;;;;;;7.72;3.72;;;-1.00;99.90;;;;;;4945375;29;20078;-72
2023/04/04 03:08:14;;;;;;;9.60;4.25;;;-1.00;99.90;;;;;;4934706;29;20131;-72
2023/04/04 03:10:40;;;;;;;7.00;4.50;;;-1.10;99.90;;;;;;4914193;29;20491;-72
2023/04/04 03:13:06;;;;;;;6.15;3.88;;;-1.10;99.90;;;;;;4939770;29;20055;-72
2023/04/04 03:15:31;;;;;;;6.57;3.72;;;-1.10;99.90;;;;;;4940726;29;20058;-72
2023/04/04 03:17:57;;;;;;;9.48;8.43;;;-1.20;99.90;;;;;;4934339;29;20035;-72
2023/04/04 03:20:24;;;;;;;8.82;4.07;;;-1.20;99.90;;;;;;4937491;29;20039;-72
2023/04/04 03:22:50;;;;;;;6.60;3.83;;;-1.20;99.90;;;;;;4949490;28;20036;-72
2023/04/04 03:25:15;;;;;;;6.28;3.75;;;-1.20;99.90;;;;;;4947189;29;20047;-72
2023/04/04 03:27:41;;;;;;;6.25;4.00;;;-1.30;99.90;;;;;;4929758;29;20048;-72
2023/04/04 03:30:08;;;;;;;9.95;4.18;;;-1.30;99.90;;;;;;4934566;29;20606;-72
2023/04/04 03:32:34;;;;;;;11.20;4.65;;;-1.30;99.90;;;;;;4926211;29;20142;-71
2023/04/04 03:35:00;;;;;;;10.25;3.80;;;-1.40;99.90;;;;;;4945450;29;20074;-72
2023/04/04 03:37:25;;;;;;;8.73;4.07;;;-1.40;99.90;;;;;;4949133;28;20044;-72
2023/04/04 03:39:51;;;;;;;7.32;4.20;;;-1.50;99.90;;;;;;4920651;29;20054;-72
2023/04/04 03:42:16;;;;;;;9.18;3.45;;;-1.50;99.90;;;;;;4936512;29;20123;-72
2023/04/04 03:44:42;;;;;;;7.03;3.53;;;-1.50;99.90;;;;;;4950333;29;20387;-72
2023/04/04 03:47:07;;;;;;;6.32;4.03;;;-1.50;99.90;;;;;;4957992;23;20070;-76
2023/04/04 03:49:33;;;;;;;7.30;3.95;;;-1.60;99.90;;;;;;4923942;29;20059;-75
2023/04/04 03:52:01;;;;;;;8.77;4.03;;;-1.60;99.90;;;;;;4928060;29;20473;-76
2023/04/04 03:54:29;;;;;;;8.95;4.40;;;-1.60;99.90;;;;;;4924500;29;20381;-75
2023/04/04 03:56:56;;;;;;;8.07;4.03;;;-1.60;99.90;;;;;;4922285;29;20040;-76
2023/04/04 03:59:22;;;;;;;10.00;4.53;;;-1.70;99.90;;;;;;4925195;29;20554;-76
2023/04/04 04:01:47;;;;;;;13.20;10.05;;;-1.70;99.90;;;;;;4930963;29;20031;-76
2023/04/04 04:04:13;;;;;;;6.30;3.80;;;-1.70;99.90;;;;;;4928145;29;20055;-76
2023/04/04 04:06:39;;;;;;;9.27;4.70;;;-1.70;99.90;;;;;;4943235;29;20043;-76
2023/04/04 04:09:04;;;;;;;6.80;4.38;;;-1.70;99.90;;;;;;4935316;29;20039;-76
2023/04/04 04:11:30;;;;;;;8.88;4.10;;;-1.70;99.90;;;;;;4935284;29;20047;-76
2023/04/04 04:13:55;;;;;;;8.98;3.67;;;-1.80;99.90;;;;;;4948507;29;20468;-75
2023/04/04 04:16:21;;;;;;;8.70;3.88;;;-1.80;99.90;;;;;;4939721;29;20043;-75
2023/04/04 04:18:47;;;;;;;6.60;3.47;;;-1.80;99.90;;;;;;4921961;29;20070;-75
2023/04/04 04:21:13;;;;;;;5.93;3.53;;;-1.80;99.90;;;;;;4932328;29;20036;-76
2023/04/04 04:23:38;;;;;;;5.65;4.00;;;-1.90;99.90;;;;;;4943246;29;20548;-75
2023/04/04 04:26:05;;;;;;;7.70;3.75;;;-1.90;99.90;;;;;;4949216;29;20046;-75
2023/04/04 04:28:31;;;;;;;7.65;3.70;;;-1.90;99.90;;;;;;4925023;29;20043;-75
2023/04/04 04:31:03;;;;;;;7.45;4.47;;;-1.90;99.90;;;;;;4929499;29;20414;-75
2023/04/04 04:33:29;;;;;;;7.85;3.28;;;-2.00;99.90;;;;;;4936130;29;20047;-76
2023/04/04 04:36:02;;;;;;;5.97;3.90;;;-2.00;99.90;;;;;;4938440;29;20094;-75
2023/04/04 04:38:28;;;;;;;8.77;4.43;;;-2.00;99.90;;;;;;4937212;29;20069;-75
2023/04/04 04:40:53;;;;;;;6.78;3.67;;;-2.00;99.90;;;;;;4934854;29;20114;-75
2023/04/04 04:43:19;;;;;;;6.22;4.18;;;-2.00;99.90;;;;;;4935932;29;20537;-75
2023/04/04 04:45:45;;;;;;;8.02;4.25;;;-2.00;99.90;;;;;;4935687;29;20730;-75
2023/04/04 04:48:11;;;;;;;14.05;4.88;;;-2.00;99.90;;;;;;4935023;29;20059;-75
2023/04/04 04:50:37;;;;;;;7.05;3.88;;;-2.00;99.90;;;;;;4935759;29;20046;-75
2023/04/04 04:53:03;;;;;;;8.48;4.10;;;-2.00;99.90;;;;;;4946603;29;20047;-75
2023/04/04 04:55:28;;;;;;;6.70;4.50;;;-2.00;99.90;;;;;;4939063;29;20400;-75
2023/04/04 04:57:54;;;;;;;8.85;5.03;;;-2.00;99.90;;;;;;4941739;29;20036;-75
2023/04/04 05:00:22;;;;;;;7.28;4.50;;;-2.00;99.90;;;;;;4940387;28;20494;-75
2023/04/04 05:02:48;;;;;;;6.50;4.45;;;-2.00;99.90;;;;;;4930124;29;20095;-75
2023/04/04 05:05:15;;;;;;;10.38;4.38;;;-2.00;99.90;;;;;;4945031;29;20043;-75
2023/04/04 05:07:47;;;;;;;7.07;4.07;;;-2.00;99.90;;;;;;4938093;29;20032;-75
2023/04/04 05:10:12;;;;;;;8.90;4.32;;;-2.10;99.90;;;;;;4946507;29;20489;-77
2023/04/04 05:12:43;;;;;;;5.18;3.58;;;-2.00;99.90;;;;;;4951025;29;20043;-75
2023/04/04 05:15:10;;;;;;;6.38;4.00;;;-2.10;99.90;;;;;;4939788;28;20043;-75
2023/04/04 05:17:35;;;;;;;7.40;3.97;;;-2.00;99.90;;;;;;4932162;29;20098;-75
2023/04/04 05:20:01;;;;;;;6.95;3.83;;;-2.00;99.90;;;;;;4935012;29;20506;-75
2023/04/04 05:22:27;;;;;;;9.55;4.03;;;-2.00;99.90;;;;;;4934825;29;20047;-75
2023/04/04 05:24:52;;;;;;;12.73;4.55;;;-2.10;99.90;;;;;;4933944;29;20102;-75
2023/04/04 05:27:18;;;;;;;8.32;4.40;;;-2.00;99.90;;;;;;4918263;29;20069;-75
2023/04/04 05:29:45;;;;;;;13.43;4.38;;;-2.00;99.90;;;;;;4927040;29;20051;-75
2023/04/04 05:32:11;;;;;;;9.00;4.15;;;-2.00;99.90;;;;;;4934957;29;20047;-75
2023/04/04 05:34:36;;;;;;;8.00;4.53;;;-1.90;99.90;;;;;;4933589;29;20517;-75
2023/04/04 05:37:02;;;;;;;11.30;5.63;;;-1.80;99.90;;;;;;4918197;29;20121;-75
2023/04/04 05:39:27;;;;;;;11.40;5.13;;;-1.70;99.90;;;;;;4942632;29;20054;-75
2023/04/04 05:41:53;;;;;;;6.40;3.85;;;-1.60;99.90;;;;;;4934543;29;20035;-75
2023/04/04 05:44:19;;;;;;;9.45;5.57;;;-1.60;99.90;;;;;;4933818;29;20031;-75
2023/04/04 05:46:44;;;;;;;7.80;4.90;;;-1.40;99.90;;;;;;4934180;29;20103;-75
2023/04/04 05:49:10;;;;;;;9.55;5.72;;;-1.30;99.90;;;;;;4940064;29;20053;-75
2023/04/04 05:51:35;;;;;;;8.05;5.00;;;-1.20;99.90;;;;;;4945489;29;20519;-75
2023/04/04 05:54:01;;;;;;;8.70;5.20;;;-1.10;99.90;;;;;;4934999;29;20061;-76
2023/04/04 05:56:26;;;;;;;11.98;5.18;;;-1.00;99.90;;;;;;4917693;29;20051;-75
2023/04/04 05:58:52;;;;;;;13.32;6.50;;;-0.90;99.90;;;;;;4934607;29;20039;-75
2023/04/04 06:01:18;;;;;;;7.88;4.95;;;-0.90;99.90;;;;;;4925464;29;20095;-75
2023/04/04 06:03:44;;;;;;;9.20;5.47;;;-0.80;99.90;;;;;;4936196;29;20055;-75
2023/04/04 06:06:09;;;;;;;11.63;5.32;;;-0.70;99.90;;;;;;4932999;29;20409;-75
2023/04/04 06:08:35;;;;;;;8.98;4.85;;;-0.60;99.90;;;;;;4934155;29;20035;-75
2023/04/04 06:11:00;;;;;;;11.93;10.40;;;-0.50;99.90;;;;;;4938485;29;20071;-76
2023/04/04 06:13:26;;;;;;;8.02;4.55;;;-0.40;99.90;;;;;;4941300;29;20074;-76
2023/04/04 06:15:51;;;;;;;9.18;5.20;;;-0.40;99.90;;;;;;4930048;29;20540;-75
2023/04/04 06:18:17;;;;;;;6.60;4.82;;;-0.30;99.90;;;;;;4913822;29;20649;-75
2023/04/04 06:20:43;;;;;;;11.45;4.88;;;-0.10;99.90;;;;;;4913253;29;20047;-75
2023/04/04 06:23:08;;;;;;;10.35;9.32;;;0.00;99.90;;;;;;4932536;29;20394;-75
2023/04/04 06:25:35;;;;;;;8.15;4.95;;;0.10;99.90;;;;;;4944651;28;20039;-75
2023/04/04 06:28:02;;;;;;;8.90;7.28;;;0.20;99.90;;;;;;4926605;29;20044;-76
2023/04/04 06:30:28;;;;;;;5.85;4.25;;;0.30;99.90;;;;;;4917214;29;20028;-74
2023/04/04 06:32:53;;;;;;;6.22;3.47;;;0.40;99.90;;;;;;4931761;29;20051;-75
2023/04/04 06:35:20;;;;;;;6.28;3.65;;;0.50;99.90;;;;;;4916212;29;20431;-75
2023/04/04 06:37:46;;;;;;;7.40;3.45;;;0.60;99.90;;;;;;4944417;29;20036;-75
2023/04/04 06:40:12;;;;;;;7.78;6.63;;;0.70;99.90;;;;;;4939432;29;20046;-75
2023/04/04 06:42:37;;;;;;;4.30;3.08;;;0.80;99.90;;;;;;4946554;29;20035;-75
2023/04/04 06:45:03;;;;;;;7.38;6.40;;;0.90;99.90;;;;;;4942403;29;20043;-74
2023/04/04 06:47:29;;;;;;;5.28;3.47;;;1.00;99.90;;;;;;4947894;29;20054;-75
2023/04/04 06:49:54;;;;;;;8.02;6.40;;;1.00;99.90;;;;;;4926505;29;20118;-75
2023/04/04 06:52:20;;;;;;;7.82;5.82;;;1.10;99.90;;;;;;4932877;29;20043;-75
2023/04/04 06:54:45;;;;;;;5.93;3.22;;;1.10;99.90;;;;;;4921119;29;20043;-75
2023/04/04 06:57:11;;;;;;;7.75;5.82;;;1.10;99.90;;;;;;4941952;29;20047;-75
2023/04/04 06:59:37;;;;;;;5.07;3.20;;;1.20;99.90;;;;;;4933426;29;20470;-76
2023/04/04 07:02:02;;;;;;;7.93;5.78;;;1.20;99.90;;;;;;4923037;29;20111;-75
2023/04/04 07:04:28;;;;;;;6.53;2.97;;;1.30;99.90;;;;;;4931849;29;20513;-75
2023/04/04 07:06:54;;;;;;;5.20;3.63;;;1.40;99.90;;;;;;4927613;29;20566;-75
2023/04/04 07:09:19;;;;;;;8.85;6.00;;;1.50;99.90;;;;;;4931573;29;20134;-75
2023/04/04 07:11:45;;;;;;;7.82;5.78;;;1.60;99.90;;;;;;4934980;29;20035;-75
2023/04/04 07:14:10;;;;;;;7.47;5.78;;;1.70;99.90;;;;;;4922581;29;20040;-75
2023/04/04 07:16:36;;;;;;;7.43;5.05;;;1.90;99.90;;;;;;4945110;29;20725;-75
2023/04/04 07:19:02;;;;;;;7.82;4.95;;;2.10;99.90;;;;;;4947376;29;20047;-75
2023/04/04 07:21:27;;;;;;;7.88;4.78;;;2.20;99.90;;;;;;4943481;29;20042;-77
2023/04/04 07:23:53;;;;;;;7.57;5.10;;;2.30;99.90;;;;;;4936069;29;20043;-77
2023/04/04 07:26:18;;;;;;;7.45;4.90;;;2.50;99.90;;;;;;4944137;29;20047;-76
2023/04/04 07:28:44;;;;;;;7.57;4.70;;;2.60;99.90;;;;;;4933345;29;20099;-73
2023/04/04 07:31:10;;;;;;;9.65;4.95;;;2.70;99.90;;;;;;4932720;29;20050;-73
2023/04/04 07:33:35;;;;;;;6.53;5.20;;;2.80;99.90;;;;;;4944811;29;20126;-74
2023/04/04 07:36:02;;;;;;;6.50;5.07;;;2.90;99.90;;;;;;4952167;29;20521;-73
2023/04/04 07:38:27;;;;;;;6.40;4.38;;;3.00;99.90;;;;;;4954963;28;20519;-73
2023/04/04 07:40:53;;;;;;;7.18;4.40;;;3.00;99.90;;;;;;4940263;29;20031;-73
2023/04/04 07:43:18;;;;;;;7.10;3.60;;;3.10;99.90;;;;;;4940314;29;20085;-73
2023/04/04 07:45:44;;;;;;;6.72;3.75;;;3.20;99.90;;;;;;4955690;29;20091;-73
2023/04/04 07:48:10;;;;;;;5.82;3.33;;;3.20;99.90;;;;;;4956005;29;20047;-73
2023/04/04 07:50:35;;;;;;;4.97;3.08;;;3.30;99.90;;;;;;4940886;29;20067;-73
2023/04/04 07:53:01;;;;;;;6.95;3.45;;;3.40;99.90;;;;;;4917599;29;20063;-73
2023/04/04 07:55:27;;;;;;;5.65;3.40;;;3.60;99.90;;;;;;4917664;29;20036;-74
2023/04/04 07:57:53;;;;;;;4.95;3.50;;;3.70;99.90;;;;;;4927505;29;20118;-73
2023/04/04 08:00:25;;;;;;;6.30;3.15;;;3.80;99.90;;;;;;4926643;29;20158;-73
2023/04/04 08:02:52;;;;;;;5.53;3.30;;;3.90;99.90;;;;;;4944733;29;20485;-74
2023/04/04 08:05:18;;;;;;;5.93;3.38;;;3.90;99.90;;;;;;4946108;29;20031;-74
2023/04/04 08:07:44;;;;;;;5.80;3.28;;;3.90;99.90;;;;;;4947574;29;20086;-73
2023/04/04 08:10:10;;;;;;;4.65;3.28;;;4.00;99.90;;;;;;4934958;29;20040;-76
2023/04/04 08:12:35;;;;;;;7.05;3.50;;;4.00;99.90;;;;;;4934940;29;20047;-76
2023/04/04 08:15:01;;;;;;;4.40;3.05;;;4.10;99.90;;;;;;4920656;29;20051;-76
2023/04/04 08:17:27;;;;;;;6.15;3.30;;;4.20;99.90;;;;;;4936101;29;20145;-75
2023/04/04 08:19:52;;;;;;;5.45;3.05;;;4.30;99.90;;;;;;4943665;29;20048;-75
2023/04/04 08:22:18;;;;;;;4.15;2.92;;;4.30;99.90;;;;;;4943351;29;20511;-77
2023/04/04 08:24:44;;;;;;;4.25;3.00;;;4.50;99.90;;;;;;4930637;29;20067;-74
2023/04/04 08:27:10;;;;;;;7.28;3.55;;;4.60;99.90;;;;;;4943304;29;20474;-74
2023/04/04 08:29:35;;;;;;;4.63;3.15;;;4.70;99.90;;;;;;4934469;29;20062;-72
2023/04/04 08:32:01;;;;;;;6.45;3.13;;;4.90;99.90;;;;;;4932822;29;20036;-72
2023/04/04 08:34:27;;;;;;;4.70;3.05;;;4.90;99.90;;;;;;4923152;29;20059;-74
2023/04/04 08:36:53;;;;;;;4.45;3.10;;;5.10;99.90;;;;;;4943810;29;20442;-74
2023/04/04 08:39:18;;;;;;;5.22;3.28;;;5.30;99.90;;;;;;4943362;29;20048;-75
2023/04/04 08:41:45;;;;;;;4.53;2.80;;;5.50;99.90;;;;;;4952794;29;20039;-74
2023/04/04 08:44:19;;;;;;;5.20;2.75;;;6.00;99.90;;;;;;4954885;29;20070;-74
2023/04/04 08:46:46;;;;;;;5.80;2.55;;;7.00;99.90;;;;;;4953672;29;20046;-74
2023/04/04 08:49:14;;;;;;;4.35;2.53;;;7.90;99.90;;;;;;4927367;29;20070;-73
2023/04/04 08:51:43;;;;;;;4.93;2.55;;;8.80;99.90;;;;;;4911665;29;20090;-74
2023/04/04 08:54:10;;;;;;;3.83;2.05;;;9.30;97.30;;;;;;4926551;29;20058;-75
2023/04/04 08:56:35;;;;;;;4.75;2.45;;;9.70;99.90;;;;;;4941638;29;20161;-74
2023/04/04 08:59:01;;;;;;;4.03;2.10;;;10.20;99.90;;;;;;4942229;29;20047;-74
2023/04/04 09:01:28;;;;;;;3.15;2.33;;;10.60;99.20;;;;;;4927288;29;20047;-76
2023/04/04 09:03:56;;;;;;;4.70;2.50;;;11.00;96.70;;;;;;4944083;29;20054;-76
2023/04/04 09:06:22;;;;;;;3.15;2.45;;;11.10;94.90;;;;;;4946436;29;20062;-77
2023/04/04 09:08:52;;;;;;;5.65;2.58;;;11.10;74.30;;;;;;4942865;29;20291;-75
2023/04/04 09:11:19;;;;;;;5.03;2.42;;;10.90;71.90;;;;;;4934022;29;20079;-75
2023/04/04 09:13:47;;;;;;;4.13;2.42;;;10.50;73.40;;;;;;4919164;29;20043;-75
2023/04/04 09:16:13;;;;;;;2.78;2.30;;;10.50;79.80;;;;;;4947475;29;20501;-76
2023/04/04 09:18:39;;;;;;;4.15;2.70;;;10.70;81.30;;;;;;4944779;29;20046;-76
2023/04/04 09:21:11;;;;;;;4.32;2.70;;;11.00;69.90;;;;;;4937944;29;20126;-76
2023/04/04 09:23:37;;;;;;;4.95;2.35;;;11.10;67.10;;;;;;4944118;29;20406;-76
2023/04/04 09:26:03;;;;;;;4.30;2.85;;;11.00;70.30;;;;;;4936799;29;20038;-76
2023/04/04 09:28:30;;;;;;;5.57;2.75;;;11.10;76.00;;;;;;4927658;29;20058;-77
2023/04/04 09:30:55;;;;;;;4.05;2.80;;;11.70;75.50;;;;;;4930380;29;20537;-78
2023/04/04 09:33:25;;;;;;;6.03;2.38;;;12.30;68.30;;;;;;4939840;29;20079;-76
2023/04/04 09:36:01;;;;;;;3.42;2.40;;;12.50;68.30;;;;;;4918733;29;20039;-77
2023/04/04 09:38:29;;;;;;;5.30;2.55;;;12.70;65.60;;;;;;4928956;29;20086;-76
2023/04/04 09:40:55;;;;;;;7.13;2.47;;;12.60;66.80;;;;;;4943312;29;20046;-77
2023/04/04 09:43:23;;;;;;;5.20;2.80;;;12.50;68.70;;;;;;4938083;29;20080;-78
2023/04/04 09:45:53;;;;;;;4.68;2.20;;;12.90;72.20;;;;;;4959344;23;20131;-80
2023/04/04 09:48:37;;;;;;;3.65;1.90;;;13.40;71.70;;;;;;4946466;29;20047;-81
2023/04/04 09:51:11;;;;;;;3.97;2.17;;;13.80;65.90;;;;;;4946761;29;20413;-81
2023/04/04 09:53:41;;;;;;;5.05;2.28;;;14.00;66.50;;;;;;4936686;28;20490;-81
2023/04/04 09:56:19;;;;;;;4.15;2.00;;;14.30;67.10;;;;;;4962650;29;20031;-84
2023/04/04 09:58:46;;;;;;;4.10;2.50;;;14.40;60.30;;;;;;4929967;29;20039;-81
2023/04/04 10:01:15;;;;;;;3.17;2.13;;;14.40;58.00;;;;;;4937788;29;20053;-80
2023/04/04 10:03:50;;;;;;;4.80;2.60;;;14.10;60.90;;;;;;4921010;29;20043;-80
2023/04/04 10:06:19;;;;;;;4.28;2.30;;;14.20;58.70;;;;;;4909251;29;20071;-80
2023/04/04 10:08:54;;;;;;;4.45;2.58;;;14.10;57.40;;;;;;4931589;29;20417;-80
2023/04/04 10:11:32;;;;;;;6.40;3.25;;;14.00;60.10;;;;;;4920044;29;20056;-81
2023/04/04 10:14:02;;;;;;;6.05;2.88;;;14.10;53.30;;;;;;4908290;29;20036;-81
2023/04/04 10:16:36;;;;;;;5.70;3.20;;;13.80;53.60;;;;;;4920152;29;20478;-80
2023/04/04 10:19:04;;;;;;;4.57;2.40;;;13.40;54.70;;;;;;4934411;29;20536;-80
2023/04/04 10:21:30;;;;;;;4.47;2.55;;;13.20;57.50;;;;;;4914308;29;20055;-76
2023/04/04 10:23:58;;;;;;;4.85;2.45;;;13.20;55.20;;;;;;4928382;29;20027;-77
2023/04/04 10:26:25;;;;;;;5.07;2.47;;;13.20;54.40;;;;;;4923065;29;20055;-79
2023/04/04 10:29:18;;;;;;;4.72;2.42;;;13.10;54.90;;;;;;4921055;29;20102;-80
2023/04/04 10:31:55;;;;;;;5.07;2.08;;;13.00;57.90;;;;;;4917542;29;20040;-82
2023/04/04 10:35:21;;;;;;;3.92;2.20;;;13.10;54.70;;;;;;4924619;29;20043;-82
2023/04/04 10:38:19;;;;;;;4.15;1.98;;;13.10;52.70;;;;;;4823165;29;20092;-82
2023/04/04 10:41:14;;;;;;;5.07;2.58;;;12.80;54.70;;;;;;4893580;29;20052;-86
2023/04/04 10:44:22;;;;;;;5.45;2.50;;;12.80;59.20;;;;;;4928344;29;20036;-82
2023/04/04 10:47:31;;;;;;;;;;;;;;;;;;;;;
2023/04/04 10:50:08;;;;;;;3.58;2.60;;;14.10;56.30;;;;;;4924949;29;20051;-79
2023/04/04 10:52:43;;;;;;;3.97;2.20;;;14.40;58.50;;;;;;4914944;29;20048;-82
2023/04/04 10:55:22;;;;;;;5.93;2.60;;;14.70;59.30;;;;;;4922930;29;20047;-82
2023/04/04 10:58:30;;;;;;;3.80;2.40;;;14.90;52.50;;;;;;4925904;29;20058;-82
2023/04/04 11:01:07;;;;;;;3.67;2.40;;;14.60;53.60;;;;;;4924960;29;20472;-82
2023/04/04 11:04:36;;;;;;;4.85;2.30;;;14.50;55.00;;;;;;4918236;29;20031;-82
2023/04/04 11:07:30;;;;;;;3.97;2.35;;;14.80;52.30;;;;;;4817399;29;20045;-81
2023/04/04 11:10:00;;;;;;;3.35;2.10;;;14.90;51.20;;;;;;4922144;29;20046;-81
2023/04/04 11:12:53;;;;;;;3.72;2.40;;;14.80;51.20;;;;;;4929137;29;20055;-81
2023/04/04 11:15:23;;;;;;;4.72;2.55;;;14.80;50.40;;;;;;4938720;29;20047;-81
2023/04/04 11:18:17;;;;;;;4.93;2.50;;;14.50;53.10;;;;;;4938688;29;20106;-81
2023/04/04 11:21:54;;;;;;;3.75;2.10;;;14.40;52.50;;;;;;4913624;29;20135;-82
2023/04/04 11:24:27;;;;;;;4.38;2.35;;;14.60;49.20;;;;;;4926604;29;20047;-83
2023/04/04 11:26:54;;;;;;;4.47;2.50;;;14.30;51.90;;;;;;4901129;29;20095;-83
2023/04/04 11:30:22;;;;;;;5.90;2.72;;;14.10;51.70;;;;;;4903783;29;20040;-80
2023/04/04 11:33:48;;;;;;;;;;;;;;;;;;;;;
2023/04/04 11:37:07;;;;;;;4.45;2.50;;;14.50;51.70;;;;;;4801352;29;20131;-81
2023/04/04 11:39:45;;;;;;;5.28;2.70;;;14.80;56.80;;;;;;4794682;29;20503;-77
2023/04/04 11:42:12;;;;;;;3.25;2.35;;;15.70;56.50;;;;;;4875530;29;20056;-78
2023/04/04 11:45:01;;;;;;;5.47;2.55;;;16.20;53.60;;;;;;4896204;29;20106;-78
2023/04/04 11:47:29;;;;;;;4.45;2.40;;;16.40;51.90;;;;;;4914341;29;20511;-79
2023/04/04 11:50:00;;;;;;;4.75;2.42;;;16.60;49.20;;;;;;4916492;29;20511;-79
2023/04/04 11:52:32;;;;;;;6.13;2.53;;;16.30;51.90;;;;;;4927163;29;20099;-78
2023/04/04 11:55:01;;;;;;;4.05;2.45;;;16.20;49.40;;;;;;4939238;29;20043;-79
2023/04/04 11:57:27;;;;;;;4.10;2.28;;;16.20;51.80;;;;;;4915826;29;20514;-79
2023/04/04 11:59:52;;;;;;;5.30;2.33;;;16.40;53.90;;;;;;4930792;29;20044;-79
2023/04/04 12:02:26;;;;;;;2.60;2.10;;;16.60;54.10;;;;;;4917019;29;20036;-78
2023/04/04 12:04:51;;;;;;;3.80;2.78;;;16.90;52.20;;;;;;4933089;29;20050;-78
2023/04/04 12:07:17;;;;;;;5.00;3.08;;;17.10;47.10;;;;;;4903966;29;20044;-78
2023/04/04 12:09:44;;;;;;;5.00;2.60;;;16.80;48.80;;;;;;4916687;29;20517;-79
2023/04/04 12:12:15;;;;;;;4.07;2.75;;;16.90;50.40;;;;;;4920060;29;20094;-79
2023/04/04 12:14:41;;;;;;;3.72;2.50;;;16.90;49.30;;;;;;4932880;29;20106;-78
2023/04/04 12:17:07;;;;;;;4.38;2.33;;;16.60;48.80;;;;;;4919136;29;20043;-79
2023/04/04 12:19:37;;;;;;;4.57;2.53;;;16.40;47.10;;;;;;4913454;29;20155;-79
2023/04/04 12:22:04;;;;;;;4.57;2.58;;;16.20;50.90;;;;;;4917201;29;20043;-79
2023/04/04 12:24:31;;;;;;;4.88;2.80;;;16.40;52.10;;;;;;4920950;29;20048;-79
2023/04/04 12:26:57;;;;;;;5.28;2.83;;;16.50;48.30;;;;;;4910533;29;20031;-78
2023/04/04 12:29:26;;;;;;;5.40;2.92;;;16.50;50.00;;;;;;4918791;29;20040;-77
2023/04/04 12:31:53;;;;;;;4.63;3.08;;;16.60;53.20;;;;;;4932805;29;20493;-78
2023/04/04 12:34:32;;;;;;;3.60;2.60;;;16.70;53.20;;;;;;4931368;29;20316;-78
2023/04/04 12:37:00;;;;;;;3.90;2.60;;;16.90;47.60;;;;;;4915422;29;20538;-77
2023/04/04 12:39:27;;;;;;;5.53;2.80;;;16.80;46.50;;;;;;4923526;29;20047;-77
2023/04/04 12:41:58;;;;;;;3.30;2.72;;;16.50;48.10;;;;;;4915239;29;20036;-77
2023/04/04 12:44:33;;;;;;;4.95;3.10;;;16.60;47.30;;;;;;4927372;29;20044;-77
2023/04/04 12:47:00;;;;;;;5.10;3.35;;;16.20;48.70;;;;;;4927718;29;20067;-76
2023/04/04 12:49:31;;;;;;;4.72;3.15;;;16.10;50.10;;;;;;4911469;29;20044;-78
2023/04/04 12:52:03;;;;;;;6.18;3.10;;;16.50;50.40;;;;;;4928152;29;20086;-75
2023/04/04 12:54:37;;;;;;;5.35;2.90;;;16.90;51.90;;;;;;4935891;29;20043;-75
2023/04/04 12:57:06;;;;;;;4.18;3.15;;;17.20;52.40;;;;;;4921498;29;20077;-78
2023/04/04 12:59:34;;;;;;;4.90;2.88;;;17.10;51.00;;;;;;4908969;29;20526;-79
2023/04/04 13:02:02;;;;;;;5.28;3.55;;;16.90;47.80;;;;;;4917823;29;20094;-79
2023/04/04 13:04:28;;;;;;;8.02;3.17;;;16.40;51.10;;;;;;4938861;29;20050;-78